Hlavní strana
METAR-TAF:

METAR-TAF

Letiště :

Győr, Maďarsko

zeměpisná šířka: 47-37-28N, zeměpisná délka: 017-48-49E, výška: 129 m

Aktuální stav počasí

Zpráva byla vytvořena před 25 minutami, v 05:45 UTC
Jihojihovýchodní vítr 7 kt, proměnlivý mezi východojihovýchodním a jižním
Teplota 24°C
Vlhkost vzduchu 69%
Tlak 1013 hPa
Viditelnost 10 km a více
Žádná oblačnost pod 1500 m, nevyskytují se cumulonimby.

METAR: LHPR 190545Z AUTO 15007KT 120V180 CAVOK 24/18 Q1013 NOSIG

Čas: 08:10 (06:10 UTC)

Předpověď počasí

Zpráva byla vytvořena před 55 minutami, v 05:15 UTC
Předpověď platná od 19 v 06 UTC do 19 v 15 UTC
Jihojihovýchodní vítr 6 kt
Viditelnost 10 km a více
Žádná oblačnost pod 1500 m, nevyskytují se cumulonimby.
Změna
od 19 v 06 UTC do 19 v 09 UTC
Jihojihozápadní vítr 8 kt

TAF: LHPR 190515Z 1906/1915 15006KT CAVOK BECMG 1906/1909 21008KT

Stav a předpovědi počasí z více než 4 000 letišť (zprávy METAR a TAF).

Červené a žluté tečky na mapě představují dostupné meteorologické stanice.

Když kurzor umístíte na tečku, zobrazí se název stanice.

Pak kliknutím zobrazíte stav a předpověď počasí.

Chcete-li změnit mapu, kliknutím na zelené tlačítko se znaménkem +mapu přiblížíte, kliknutím na zelené tlačítko se znaménkem – mapu oddálíte a kliknutím na zelené šipky přejdete na sousední mapy.


METAR-TAF: